sensor_id;sensor_type;location;lat;lon;timestamp;P1;durP1;ratioP1;P2;durP2;ratioP2
10479;SDS011;12789;42.610;23.040;2023-07-22T00:05:06;15.95;;;6.45;;
10479;SDS011;12789;42.610;23.040;2023-07-22T00:07:48;21.30;;;6.63;;
10479;SDS011;12789;42.610;23.040;2023-07-22T00:10:36;16.15;;;6.05;;
10479;SDS011;12789;42.610;23.040;2023-07-22T00:13:18;14.48;;;5.18;;
10479;SDS011;12789;42.610;23.040;2023-07-22T00:15:52;17.85;;;5.15;;
10479;SDS011;12789;42.610;23.040;2023-07-22T00:18:34;17.15;;;5.93;;
10479;SDS011;12789;42.610;23.040;2023-07-22T00:21:21;15.18;;;5.88;;
10479;SDS011;12789;42.610;23.040;2023-07-22T00:23:56;17.70;;;5.55;;
10479;SDS011;12789;42.610;23.040;2023-07-22T00:26:28;18.67;;;5.70;;
10479;SDS011;12789;42.610;23.040;2023-07-22T00:28:58;13.93;;;5.75;;
10479;SDS011;12789;42.610;23.040;2023-07-22T00:31:32;14.18;;;5.55;;
10479;SDS011;12789;42.610;23.040;2023-07-22T00:34:04;15.25;;;5.57;;
10479;SDS011;12789;42.610;23.040;2023-07-22T00:36:32;14.98;;;5.60;;
10479;SDS011;12789;42.610;23.040;2023-07-22T00:39:03;21.77;;;5.72;;
10479;SDS011;12789;42.610;23.040;2023-07-22T00:41:48;12.32;;;5.70;;
10479;SDS011;12789;42.610;23.040;2023-07-22T00:44:24;22.55;;;6.22;;
10479;SDS011;12789;42.610;23.040;2023-07-22T00:46:54;23.35;;;6.13;;
10479;SDS011;12789;42.610;23.040;2023-07-22T00:49:21;20.80;;;6.15;;
10479;SDS011;12789;42.610;23.040;2023-07-22T00:51:49;18.27;;;6.15;;
10479;SDS011;12789;42.610;23.040;2023-07-22T00:54:33;14.57;;;5.82;;
10479;SDS011;12789;42.610;23.040;2023-07-22T00:57:01;15.43;;;6.30;;
10479;SDS011;12789;42.610;23.040;2023-07-22T00:59:36;15.75;;;5.40;;
10479;SDS011;12789;42.610;23.040;2023-07-22T01:02:36;17.55;;;6.50;;
10479;SDS011;12789;42.610;23.040;2023-07-22T01:05:06;14.55;;;5.65;;
10479;SDS011;12789;42.610;23.040;2023-07-22T01:07:37;17.02;;;5.78;;
10479;SDS011;12789;42.610;23.040;2023-07-22T01:10:09;18.35;;;5.90;;
10479;SDS011;12789;42.610;23.040;2023-07-22T01:12:45;13.75;;;6.10;;
10479;SDS011;12789;42.610;23.040;2023-07-22T01:15:14;15.73;;;6.07;;
10479;SDS011;12789;42.610;23.040;2023-07-22T01:17:47;15.73;;;5.65;;
10479;SDS011;12789;42.610;23.040;2023-07-22T01:20:18;13.77;;;5.60;;
10479;SDS011;12789;42.610;23.040;2023-07-22T01:29:26;11.65;;;5.45;;
10479;SDS011;12789;42.610;23.040;2023-07-22T01:31:55;14.60;;;5.85;;
10479;SDS011;12789;42.610;23.040;2023-07-22T01:34:29;10.90;;;4.85;;
10479;SDS011;12789;42.610;23.040;2023-07-22T01:37:19;16.75;;;5.57;;
10479;SDS011;12789;42.610;23.040;2023-07-22T01:40:02;12.93;;;5.38;;
10479;SDS011;12789;42.610;23.040;2023-07-22T01:42:48;18.45;;;6.13;;
10479;SDS011;12789;42.610;23.040;2023-07-22T01:45:22;13.48;;;5.80;;
10479;SDS011;12789;42.610;23.040;2023-07-22T01:48:08;14.30;;;6.18;;
10479;SDS011;12789;42.610;23.040;2023-07-22T01:50:54;14.88;;;5.80;;
10479;SDS011;12789;42.610;23.040;2023-07-22T01:53:26;13.75;;;6.20;;
10479;SDS011;12789;42.610;23.040;2023-07-22T01:55:59;20.90;;;6.00;;
10479;SDS011;12789;42.610;23.040;2023-07-22T01:58:32;16.67;;;6.50;;
10479;SDS011;12789;42.610;23.040;2023-07-22T02:01:14;16.27;;;6.25;;
10479;SDS011;12789;42.610;23.040;2023-07-22T02:03:58;24.48;;;7.07;;
10479;SDS011;12789;42.610;23.040;2023-07-22T02:06:27;26.02;;;6.70;;
10479;SDS011;12789;42.610;23.040;2023-07-22T02:08:54;12.65;;;5.95;;
10479;SDS011;12789;42.610;23.040;2023-07-22T02:11:26;20.35;;;6.32;;
10479;SDS011;12789;42.610;23.040;2023-07-22T02:13:55;16.73;;;5.68;;
10479;SDS011;12789;42.610;23.040;2023-07-22T02:16:28;18.80;;;6.03;;
10479;SDS011;12789;42.610;23.040;2023-07-22T02:18:58;22.48;;;6.20;;
10479;SDS011;12789;42.610;23.040;2023-07-22T02:21:33;18.83;;;5.57;;
10479;SDS011;12789;42.610;23.040;2023-07-22T02:24:14;16.17;;;5.90;;
10479;SDS011;12789;42.610;23.040;2023-07-22T02:26:44;16.00;;;6.43;;
10479;SDS011;12789;42.610;23.040;2023-07-22T02:29:12;13.57;;;5.60;;
10479;SDS011;12789;42.610;23.040;2023-07-22T02:31:50;10.32;;;5.50;;
10479;SDS011;12789;42.610;23.040;2023-07-22T02:34:19;12.02;;;5.80;;
10479;SDS011;12789;42.610;23.040;2023-07-22T02:36:48;11.60;;;6.10;;
10479;SDS011;12789;42.610;23.040;2023-07-22T02:39:29;19.60;;;5.53;;
10479;SDS011;12789;42.610;23.040;2023-07-22T02:42:06;17.92;;;6.30;;
10479;SDS011;12789;42.610;23.040;2023-07-22T02:44:48;15.13;;;6.13;;
10479;SDS011;12789;42.610;23.040;2023-07-22T02:47:18;13.95;;;6.25;;
10479;SDS011;12789;42.610;23.040;2023-07-22T02:49:47;18.38;;;6.25;;
10479;SDS011;12789;42.610;23.040;2023-07-22T02:52:14;15.65;;;5.82;;
10479;SDS011;12789;42.610;23.040;2023-07-22T02:54:53;13.65;;;5.65;;
10479;SDS011;12789;42.610;23.040;2023-07-22T02:57:33;19.45;;;6.53;;
10479;SDS011;12789;42.610;23.040;2023-07-22T03:00:04;12.25;;;5.80;;
10479;SDS011;12789;42.610;23.040;2023-07-22T03:02:41;18.10;;;6.15;;
10479;SDS011;12789;42.610;23.040;2023-07-22T03:05:16;19.45;;;7.03;;
10479;SDS011;12789;42.610;23.040;2023-07-22T03:07:51;21.60;;;6.00;;
10479;SDS011;12789;42.610;23.040;2023-07-22T03:10:18;17.30;;;6.68;;
10479;SDS011;12789;42.610;23.040;2023-07-22T03:12:47;20.95;;;6.20;;
10479;SDS011;12789;42.610;23.040;2023-07-22T03:15:28;15.38;;;5.78;;
10479;SDS011;12789;42.610;23.040;2023-07-22T03:18:02;20.17;;;6.93;;
10479;SDS011;12789;42.610;23.040;2023-07-22T03:20:32;26.83;;;6.65;;
10479;SDS011;12789;42.610;23.040;2023-07-22T03:23:04;29.08;;;6.93;;
10479;SDS011;12789;42.610;23.040;2023-07-22T03:25:34;26.98;;;6.85;;
10479;SDS011;12789;42.610;23.040;2023-07-22T03:28:05;29.35;;;6.25;;
10479;SDS011;12789;42.610;23.040;2023-07-22T03:30:39;28.42;;;6.47;;
10479;SDS011;12789;42.610;23.040;2023-07-22T03:33:24;19.27;;;6.95;;
10479;SDS011;12789;42.610;23.040;2023-07-22T03:36:00;25.20;;;7.07;;
10479;SDS011;12789;42.610;23.040;2023-07-22T03:38:35;19.60;;;6.80;;
10479;SDS011;12789;42.610;23.040;2023-07-22T03:42:21;18.42;;;6.22;;
10479;SDS011;12789;42.610;23.040;2023-07-22T03:44:56;39.33;;;7.75;;
10479;SDS011;12789;42.610;23.040;2023-07-22T03:47:51;54.45;;;8.23;;
10479;SDS011;12789;42.610;23.040;2023-07-22T03:57:11;64.03;;;8.02;;
10479;SDS011;12789;42.610;23.040;2023-07-22T03:59:54;81.00;;;8.70;;
10479;SDS011;12789;42.610;23.040;2023-07-22T04:03:08;69.75;;;8.63;;
10479;SDS011;12789;42.610;23.040;2023-07-22T04:06:05;68.65;;;9.25;;
10479;SDS011;12789;42.610;23.040;2023-07-22T04:08:46;58.55;;;9.35;;
10479;SDS011;12789;42.610;23.040;2023-07-22T04:17:43;43.33;;;9.38;;
10479;SDS011;12789;42.610;23.040;2023-07-22T04:20:33;43.28;;;7.30;;
10479;SDS011;12789;42.610;23.040;2023-07-22T04:23:24;40.95;;;9.10;;
10479;SDS011;12789;42.610;23.040;2023-07-22T04:25:51;33.17;;;7.72;;
10479;SDS011;12789;42.610;23.040;2023-07-22T04:28:19;35.72;;;8.70;;
10479;SDS011;12789;42.610;23.040;2023-07-22T04:30:54;42.15;;;8.88;;
10479;SDS011;12789;42.610;23.040;2023-07-22T04:33:35;36.53;;;7.38;;
10479;SDS011;12789;42.610;23.040;2023-07-22T04:36:03;42.92;;;9.75;;
10479;SDS011;12789;42.610;23.040;2023-07-22T04:38:38;34.28;;;8.30;;
10479;SDS011;12789;42.610;23.040;2023-07-22T04:41:15;31.70;;;8.48;;
10479;SDS011;12789;42.610;23.040;2023-07-22T04:43:55;31.08;;;10.43;;
10479;SDS011;12789;42.610;23.040;2023-07-22T04:46:26;31.33;;;7.70;;
10479;SDS011;12789;42.610;23.040;2023-07-22T04:48:55;28.42;;;6.65;;
10479;SDS011;12789;42.610;23.040;2023-07-22T04:51:23;32.75;;;6.90;;
10479;SDS011;12789;42.610;23.040;2023-07-22T04:53:49;23.92;;;7.10;;
10479;SDS011;12789;42.610;23.040;2023-07-22T04:56:16;26.88;;;6.93;;
10479;SDS011;12789;42.610;23.040;2023-07-22T04:58:42;32.47;;;7.45;;
10479;SDS011;12789;42.610;23.040;2023-07-22T05:01:10;32.83;;;7.47;;
10479;SDS011;12789;42.610;23.040;2023-07-22T05:03:37;28.17;;;7.13;;
10479;SDS011;12789;42.610;23.040;2023-07-22T05:06:05;22.90;;;6.60;;
10479;SDS011;12789;42.610;23.040;2023-07-22T05:08:31;28.05;;;6.70;;
10479;SDS011;12789;42.610;23.040;2023-07-22T05:10:58;20.05;;;7.07;;
10479;SDS011;12789;42.610;23.040;2023-07-22T05:13:24;22.73;;;6.60;;
10479;SDS011;12789;42.610;23.040;2023-07-22T05:15:51;22.10;;;6.35;;
10479;SDS011;12789;42.610;23.040;2023-07-22T05:18:17;35.47;;;6.45;;
10479;SDS011;12789;42.610;23.040;2023-07-22T05:20:44;21.40;;;5.82;;
10479;SDS011;12789;42.610;23.040;2023-07-22T05:23:12;21.88;;;5.72;;
10479;SDS011;12789;42.610;23.040;2023-07-22T05:25:39;21.30;;;6.15;;
10479;SDS011;12789;42.610;23.040;2023-07-22T05:28:05;20.23;;;5.75;;
10479;SDS011;12789;42.610;23.040;2023-07-22T05:30:32;15.65;;;5.60;;
10479;SDS011;12789;42.610;23.040;2023-07-22T05:32:58;17.98;;;5.90;;
10479;SDS011;12789;42.610;23.040;2023-07-22T05:35:25;17.27;;;6.00;;
10479;SDS011;12789;42.610;23.040;2023-07-22T05:37:51;20.70;;;5.88;;
10479;SDS011;12789;42.610;23.040;2023-07-22T05:40:19;12.77;;;5.55;;
10479;SDS011;12789;42.610;23.040;2023-07-22T05:42:46;16.33;;;5.97;;
10479;SDS011;12789;42.610;23.040;2023-07-22T05:45:12;14.65;;;5.93;;
10479;SDS011;12789;42.610;23.040;2023-07-22T05:47:40;16.75;;;6.30;;
10479;SDS011;12789;42.610;23.040;2023-07-22T05:50:15;16.10;;;6.30;;
10479;SDS011;12789;42.610;23.040;2023-07-22T05:52:44;15.43;;;6.05;;
10479;SDS011;12789;42.610;23.040;2023-07-22T05:55:17;20.08;;;6.38;;
10479;SDS011;12789;42.610;23.040;2023-07-22T06:00:38;21.48;;;6.55;;
10479;SDS011;12789;42.610;23.040;2023-07-22T06:05:57;30.85;;;8.38;;
10479;SDS011;12789;42.610;23.040;2023-07-22T06:08:29;24.42;;;7.45;;
10479;SDS011;12789;42.610;23.040;2023-07-22T06:10:56;21.88;;;6.95;;
10479;SDS011;12789;42.610;23.040;2023-07-22T06:13:23;18.58;;;6.28;;
10479;SDS011;12789;42.610;23.040;2023-07-22T06:15:56;26.50;;;7.13;;
10479;SDS011;12789;42.610;23.040;2023-07-22T06:18:26;29.27;;;7.03;;
10479;SDS011;12789;42.610;23.040;2023-07-22T06:21:08;27.38;;;6.68;;
10479;SDS011;12789;42.610;23.040;2023-07-22T06:23:42;22.92;;;7.13;;
10479;SDS011;12789;42.610;23.040;2023-07-22T06:26:14;28.65;;;7.20;;
10479;SDS011;12789;42.610;23.040;2023-07-22T06:28:48;28.73;;;8.20;;
10479;SDS011;12789;42.610;23.040;2023-07-22T06:31:35;25.20;;;7.82;;
10479;SDS011;12789;42.610;23.040;2023-07-22T06:34:07;21.17;;;7.18;;
10479;SDS011;12789;42.610;23.040;2023-07-22T06:36:36;27.70;;;7.07;;
10479;SDS011;12789;42.610;23.040;2023-07-22T06:39:06;34.85;;;7.90;;
10479;SDS011;12789;42.610;23.040;2023-07-22T06:41:54;20.77;;;7.22;;
10479;SDS011;12789;42.610;23.040;2023-07-22T06:44:26;17.88;;;6.32;;
10479;SDS011;12789;42.610;23.040;2023-07-22T06:46:56;16.13;;;6.25;;
10479;SDS011;12789;42.610;23.040;2023-07-22T06:49:29;15.85;;;6.60;;
10479;SDS011;12789;42.610;23.040;2023-07-22T06:52:04;11.90;;;7.13;;
10479;SDS011;12789;42.610;23.040;2023-07-22T06:54:36;17.02;;;6.93;;
10479;SDS011;12789;42.610;23.040;2023-07-22T06:57:23;48.90;;;9.15;;
10479;SDS011;12789;42.610;23.040;2023-07-22T07:00:40;22.45;;;6.70;;
10479;SDS011;12789;42.610;23.040;2023-07-22T07:05:53;15.60;;;6.90;;
10479;SDS011;12789;42.610;23.040;2023-07-22T07:08:36;20.08;;;6.90;;
10479;SDS011;12789;42.610;23.040;2023-07-22T07:11:17;15.05;;;6.25;;
10479;SDS011;12789;42.610;23.040;2023-07-22T07:13:43;21.25;;;7.50;;
10479;SDS011;12789;42.610;23.040;2023-07-22T07:16:20;25.40;;;7.15;;
10479;SDS011;12789;42.610;23.040;2023-07-22T07:18:47;16.23;;;6.25;;
10479;SDS011;12789;42.610;23.040;2023-07-22T07:27:03;20.95;;;6.60;;
10479;SDS011;12789;42.610;23.040;2023-07-22T07:29:58;13.68;;;6.57;;
10479;SDS011;12789;42.610;23.040;2023-07-22T07:32:38;11.48;;;6.40;;
10479;SDS011;12789;42.610;23.040;2023-07-22T07:35:33;15.35;;;6.30;;
10479;SDS011;12789;42.610;23.040;2023-07-22T07:38:14;16.42;;;6.32;;
10479;SDS011;12789;42.610;23.040;2023-07-22T07:40:50;19.67;;;6.70;;
10479;SDS011;12789;42.610;23.040;2023-07-22T07:43:42;12.32;;;5.80;;
10479;SDS011;12789;42.610;23.040;2023-07-22T07:46:28;10.40;;;6.13;;
10479;SDS011;12789;42.610;23.040;2023-07-22T07:49:10;14.45;;;6.35;;
10479;SDS011;12789;42.610;23.040;2023-07-22T07:51:51;7.75;;;5.72;;
10479;SDS011;12789;42.610;23.040;2023-07-22T07:54:25;15.23;;;5.97;;
10479;SDS011;12789;42.610;23.040;2023-07-22T07:57:02;9.88;;;5.43;;
10479;SDS011;12789;42.610;23.040;2023-07-22T07:59:36;14.60;;;6.22;;
10479;SDS011;12789;42.610;23.040;2023-07-22T08:02:21;9.93;;;5.68;;
10479;SDS011;12789;42.610;23.040;2023-07-22T08:04:54;7.32;;;5.35;;
10479;SDS011;12789;42.610;23.040;2023-07-22T08:07:46;16.70;;;5.78;;
10479;SDS011;12789;42.610;23.040;2023-07-22T08:10:38;15.68;;;7.45;;
10479;SDS011;12789;42.610;23.040;2023-07-22T08:13:12;11.75;;;5.65;;
10479;SDS011;12789;42.610;23.040;2023-07-22T08:15:39;13.80;;;6.20;;
10479;SDS011;12789;42.610;23.040;2023-07-22T08:18:23;12.60;;;5.47;;
10479;SDS011;12789;42.610;23.040;2023-07-22T08:21:18;12.88;;;5.30;;
10479;SDS011;12789;42.610;23.040;2023-07-22T08:23:58;9.98;;;5.55;;
10479;SDS011;12789;42.610;23.040;2023-07-22T08:26:54;8.88;;;5.80;;
10479;SDS011;12789;42.610;23.040;2023-07-22T08:29:39;8.73;;;5.13;;
10479;SDS011;12789;42.610;23.040;2023-07-22T08:32:19;6.82;;;5.45;;
10479;SDS011;12789;42.610;23.040;2023-07-22T08:35:34;15.10;;;5.45;;
10479;SDS011;12789;42.610;23.040;2023-07-22T08:38:26;8.73;;;5.45;;
10479;SDS011;12789;42.610;23.040;2023-07-22T08:53:01;16.48;;;5.40;;
10479;SDS011;12789;42.610;23.040;2023-07-22T08:56:14;14.05;;;5.35;;
10479;SDS011;12789;42.610;23.040;2023-07-22T08:59:07;8.27;;;4.72;;
10479;SDS011;12789;42.610;23.040;2023-07-22T09:01:44;11.10;;;4.70;;
10479;SDS011;12789;42.610;23.040;2023-07-22T09:04:45;12.15;;;4.47;;
10479;SDS011;12789;42.610;23.040;2023-07-22T09:07:29;14.65;;;4.93;;
10479;SDS011;12789;42.610;23.040;2023-07-22T09:10:07;11.27;;;4.65;;
10479;SDS011;12789;42.610;23.040;2023-07-22T09:12:49;12.95;;;4.95;;
10479;SDS011;12789;42.610;23.040;2023-07-22T09:15:52;9.25;;;4.35;;
10479;SDS011;12789;42.610;23.040;2023-07-22T09:21:55;15.10;;;4.88;;
10479;SDS011;12789;42.610;23.040;2023-07-22T09:33:35;10.48;;;4.47;;
10479;SDS011;12789;42.610;23.040;2023-07-22T09:36:10;14.02;;;5.30;;
10479;SDS011;12789;42.610;23.040;2023-07-22T09:39:02;14.98;;;5.13;;
10479;SDS011;12789;42.610;23.040;2023-07-22T09:44:48;12.02;;;4.80;;
10479;SDS011;12789;42.610;23.040;2023-07-22T09:47:28;12.52;;;4.45;;
10479;SDS011;12789;42.610;23.040;2023-07-22T09:50:14;12.52;;;4.30;;
10479;SDS011;12789;42.610;23.040;2023-07-22T09:53:08;13.65;;;5.00;;
10479;SDS011;12789;42.610;23.040;2023-07-22T09:55:44;16.45;;;4.43;;
10479;SDS011;12789;42.610;23.040;2023-07-22T09:58:20;12.25;;;4.70;;
10479;SDS011;12789;42.610;23.040;2023-07-22T10:01:24;13.85;;;4.82;;
10479;SDS011;12789;42.610;23.040;2023-07-22T10:04:35;15.57;;;5.45;;
10479;SDS011;12789;42.610;23.040;2023-07-22T10:07:31;14.65;;;4.32;;
10479;SDS011;12789;42.610;23.040;2023-07-22T10:11:24;19.58;;;5.30;;
10479;SDS011;12789;42.610;23.040;2023-07-22T10:13:52;20.50;;;4.80;;
10479;SDS011;12789;42.610;23.040;2023-07-22T10:19:53;13.45;;;5.45;;
10479;SDS011;12789;42.610;23.040;2023-07-22T10:22:30;13.20;;;5.47;;
10479;SDS011;12789;42.610;23.040;2023-07-22T10:25:26;17.33;;;5.05;;
10479;SDS011;12789;42.610;23.040;2023-07-22T10:28:14;19.55;;;7.40;;
10479;SDS011;12789;42.610;23.040;2023-07-22T10:31:17;15.38;;;4.93;;
10479;SDS011;12789;42.610;23.040;2023-07-22T10:34:28;15.50;;;4.70;;
10479;SDS011;12789;42.610;23.040;2023-07-22T10:37:22;17.13;;;5.15;;
10479;SDS011;12789;42.610;23.040;2023-07-22T10:40:49;17.55;;;5.00;;
10479;SDS011;12789;42.610;23.040;2023-07-22T10:43:26;21.05;;;5.10;;
10479;SDS011;12789;42.610;23.040;2023-07-22T10:52:44;13.40;;;4.80;;
10479;SDS011;12789;42.610;23.040;2023-07-22T10:55:21;22.67;;;5.25;;
10479;SDS011;12789;42.610;23.040;2023-07-22T10:57:58;20.45;;;6.10;;
10479;SDS011;12789;42.610;23.040;2023-07-22T11:04:37;19.10;;;5.00;;
10479;SDS011;12789;42.610;23.040;2023-07-22T11:07:55;23.25;;;5.15;;
10479;SDS011;12789;42.610;23.040;2023-07-22T11:14:27;35.08;;;5.60;;
10479;SDS011;12789;42.610;23.040;2023-07-22T11:27:29;27.42;;;6.15;;
10479;SDS011;12789;42.610;23.040;2023-07-22T11:33:40;16.23;;;4.93;;
10479;SDS011;12789;42.610;23.040;2023-07-22T11:36:34;19.80;;;5.30;;
10479;SDS011;12789;42.610;23.040;2023-07-22T11:42:46;21.23;;;6.18;;
10479;SDS011;12789;42.610;23.040;2023-07-22T11:55:11;23.67;;;5.05;;
10479;SDS011;12789;42.610;23.040;2023-07-22T11:58:02;15.35;;;5.00;;
10479;SDS011;12789;42.610;23.040;2023-07-22T12:04:13;15.32;;;5.18;;
10479;SDS011;12789;42.610;23.040;2023-07-22T12:07:28;20.08;;;5.03;;
10479;SDS011;12789;42.610;23.040;2023-07-22T12:09:56;17.48;;;5.07;;
10479;SDS011;12789;42.610;23.040;2023-07-22T12:12:32;22.42;;;4.80;;
10479;SDS011;12789;42.610;23.040;2023-07-22T12:15:08;20.33;;;5.15;;
10479;SDS011;12789;42.610;23.040;2023-07-22T12:17:59;24.85;;;7.43;;
10479;SDS011;12789;42.610;23.040;2023-07-22T12:20:29;27.40;;;5.72;;
10479;SDS011;12789;42.610;23.040;2023-07-22T12:23:00;17.73;;;4.90;;
10479;SDS011;12789;42.610;23.040;2023-07-22T12:25:28;21.20;;;5.15;;
10479;SDS011;12789;42.610;23.040;2023-07-22T12:27:58;19.08;;;4.75;;
10479;SDS011;12789;42.610;23.040;2023-07-22T12:30:25;18.10;;;4.57;;
10479;SDS011;12789;42.610;23.040;2023-07-22T12:32:56;19.52;;;4.55;;
10479;SDS011;12789;42.610;23.040;2023-07-22T12:35:24;23.23;;;5.68;;
10479;SDS011;12789;42.610;23.040;2023-07-22T12:37:53;19.27;;;4.38;;
10479;SDS011;12789;42.610;23.040;2023-07-22T12:40:20;22.33;;;4.97;;
10479;SDS011;12789;42.610;23.040;2023-07-22T12:42:51;21.00;;;4.60;;
10479;SDS011;12789;42.610;23.040;2023-07-22T12:45:19;16.88;;;4.18;;
10479;SDS011;12789;42.610;23.040;2023-07-22T12:47:50;22.40;;;4.88;;
10479;SDS011;12789;42.610;23.040;2023-07-22T12:50:17;14.85;;;4.53;;
10479;SDS011;12789;42.610;23.040;2023-07-22T12:52:45;20.45;;;5.18;;
10479;SDS011;12789;42.610;23.040;2023-07-22T12:55:12;19.30;;;4.65;;
10479;SDS011;12789;42.610;23.040;2023-07-22T12:58:07;24.88;;;5.43;;
10479;SDS011;12789;42.610;23.040;2023-07-22T13:00:52;24.05;;;4.95;;
10479;SDS011;12789;42.610;23.040;2023-07-22T13:03:22;18.77;;;4.60;;
10479;SDS011;12789;42.610;23.040;2023-07-22T13:05:54;18.00;;;4.95;;
10479;SDS011;12789;42.610;23.040;2023-07-22T13:08:21;24.02;;;5.00;;
10479;SDS011;12789;42.610;23.040;2023-07-22T13:10:48;17.65;;;4.68;;
10479;SDS011;12789;42.610;23.040;2023-07-22T13:13:21;16.70;;;4.70;;
10479;SDS011;12789;42.610;23.040;2023-07-22T13:15:56;20.08;;;4.13;;
10479;SDS011;12789;42.610;23.040;2023-07-22T13:18:26;17.92;;;4.68;;
10479;SDS011;12789;42.610;23.040;2023-07-22T13:21:06;19.67;;;4.75;;
10479;SDS011;12789;42.610;23.040;2023-07-22T13:23:35;27.33;;;5.25;;
10479;SDS011;12789;42.610;23.040;2023-07-22T13:26:02;26.15;;;5.50;;
10479;SDS011;12789;42.610;23.040;2023-07-22T13:28:49;16.95;;;4.50;;
10479;SDS011;12789;42.610;23.040;2023-07-22T13:31:23;19.60;;;5.20;;
10479;SDS011;12789;42.610;23.040;2023-07-22T13:33:53;15.70;;;4.72;;
10479;SDS011;12789;42.610;23.040;2023-07-22T13:36:28;20.15;;;5.10;;
10479;SDS011;12789;42.610;23.040;2023-07-22T13:39:01;26.17;;;5.10;;
10479;SDS011;12789;42.610;23.040;2023-07-22T13:41:28;23.92;;;5.22;;
10479;SDS011;12789;42.610;23.040;2023-07-22T13:43:57;19.70;;;4.80;;
10479;SDS011;12789;42.610;23.040;2023-07-22T13:46:28;18.08;;;5.40;;
10479;SDS011;12789;42.610;23.040;2023-07-22T13:48:57;20.77;;;5.60;;
10479;SDS011;12789;42.610;23.040;2023-07-22T13:51:24;20.88;;;5.07;;
10479;SDS011;12789;42.610;23.040;2023-07-22T13:53:53;24.00;;;5.10;;
10479;SDS011;12789;42.610;23.040;2023-07-22T13:56:22;20.27;;;5.07;;
10479;SDS011;12789;42.610;23.040;2023-07-22T13:59:03;20.15;;;4.63;;
10479;SDS011;12789;42.610;23.040;2023-07-22T14:01:36;22.42;;;5.32;;
10479;SDS011;12789;42.610;23.040;2023-07-22T14:04:09;25.13;;;5.35;;
10479;SDS011;12789;42.610;23.040;2023-07-22T14:06:38;17.98;;;4.40;;
10479;SDS011;12789;42.610;23.040;2023-07-22T14:09:27;14.45;;;4.35;;
10479;SDS011;12789;42.610;23.040;2023-07-22T14:11:56;20.83;;;4.78;;
10479;SDS011;12789;42.610;23.040;2023-07-22T14:14:23;25.48;;;5.30;;
10479;SDS011;12789;42.610;23.040;2023-07-22T14:16:55;16.55;;;4.78;;
10479;SDS011;12789;42.610;23.040;2023-07-22T14:19:24;21.20;;;5.28;;
10479;SDS011;12789;42.610;23.040;2023-07-22T14:21:54;24.33;;;4.85;;
10479;SDS011;12789;42.610;23.040;2023-07-22T14:24:34;25.77;;;5.50;;
10479;SDS011;12789;42.610;23.040;2023-07-22T14:27:09;17.02;;;4.90;;
10479;SDS011;12789;42.610;23.040;2023-07-22T14:29:40;24.73;;;5.20;;
10479;SDS011;12789;42.610;23.040;2023-07-22T14:35:25;20.83;;;5.38;;
10479;SDS011;12789;42.610;23.040;2023-07-22T14:38:17;22.65;;;5.43;;
10479;SDS011;12789;42.610;23.040;2023-07-22T14:40:56;21.40;;;5.68;;
10479;SDS011;12789;42.610;23.040;2023-07-22T14:43:37;25.20;;;5.20;;
10479;SDS011;12789;42.610;23.040;2023-07-22T14:46:16;19.20;;;5.18;;
10479;SDS011;12789;42.610;23.040;2023-07-22T14:49:01;17.95;;;5.15;;
10479;SDS011;12789;42.610;23.040;2023-07-22T14:51:40;21.05;;;5.40;;
10479;SDS011;12789;42.610;23.040;2023-07-22T14:54:07;21.85;;;5.25;;
10479;SDS011;12789;42.610;23.040;2023-07-22T14:56:36;21.25;;;5.13;;
10479;SDS011;12789;42.610;23.040;2023-07-22T14:59:10;20.58;;;5.10;;
10479;SDS011;12789;42.610;23.040;2023-07-22T15:02:05;23.65;;;4.57;;
10479;SDS011;12789;42.610;23.040;2023-07-22T15:04:48;21.52;;;5.18;;
10479;SDS011;12789;42.610;23.040;2023-07-22T15:07:23;23.25;;;5.35;;
10479;SDS011;12789;42.610;23.040;2023-07-22T15:10:09;21.65;;;5.13;;
10479;SDS011;12789;42.610;23.040;2023-07-22T15:12:56;21.13;;;5.47;;
10479;SDS011;12789;42.610;23.040;2023-07-22T15:15:39;24.15;;;5.20;;
10479;SDS011;12789;42.610;23.040;2023-07-22T15:18:48;23.95;;;5.07;;
10479;SDS011;12789;42.610;23.040;2023-07-22T15:22:26;20.27;;;4.93;;
10479;SDS011;12789;42.610;23.040;2023-07-22T15:25:49;18.35;;;4.75;;
10479;SDS011;12789;42.610;23.040;2023-07-22T15:28:24;22.02;;;5.07;;
10479;SDS011;12789;42.610;23.040;2023-07-22T15:30:56;17.63;;;5.35;;
10479;SDS011;12789;42.610;23.040;2023-07-22T15:33:24;23.75;;;5.90;;
10479;SDS011;12789;42.610;23.040;2023-07-22T15:35:56;17.70;;;5.13;;
10479;SDS011;12789;42.610;23.040;2023-07-22T15:38:45;23.67;;;5.40;;
10479;SDS011;12789;42.610;23.040;2023-07-22T15:41:13;25.95;;;5.60;;
10479;SDS011;12789;42.610;23.040;2023-07-22T15:43:41;25.77;;;5.53;;
10479;SDS011;12789;42.610;23.040;2023-07-22T15:46:12;24.67;;;5.82;;
10479;SDS011;12789;42.610;23.040;2023-07-22T15:48:53;27.48;;;5.50;;
10479;SDS011;12789;42.610;23.040;2023-07-22T15:54:17;19.00;;;4.65;;
10479;SDS011;12789;42.610;23.040;2023-07-22T16:02:50;25.08;;;5.05;;
10479;SDS011;12789;42.610;23.040;2023-07-22T16:05:51;23.92;;;5.63;;
10479;SDS011;12789;42.610;23.040;2023-07-22T16:08:41;20.85;;;5.38;;
10479;SDS011;12789;42.610;23.040;2023-07-22T16:11:30;18.48;;;5.13;;
10479;SDS011;12789;42.610;23.040;2023-07-22T16:31:26;21.52;;;5.60;;
10479;SDS011;12789;42.610;23.040;2023-07-22T18:35:03;26.40;;;7.43;;
10479;SDS011;12789;42.610;23.040;2023-07-22T19:22:17;21.27;;;6.05;;
10479;SDS011;12789;42.610;23.040;2023-07-22T19:24:53;17.85;;;6.00;;
10479;SDS011;12789;42.610;23.040;2023-07-22T19:27:27;19.92;;;6.88;;
10479;SDS011;12789;42.610;23.040;2023-07-22T19:30:27;43.30;;;21.50;;
10479;SDS011;12789;42.610;23.040;2023-07-22T19:36:18;22.17;;;6.25;;
10479;SDS011;12789;42.610;23.040;2023-07-22T19:39:17;27.17;;;7.03;;
10479;SDS011;12789;42.610;23.040;2023-07-22T19:47:53;10.40;;;4.32;;
10479;SDS011;12789;42.610;23.040;2023-07-22T20:12:32;20.98;;;6.18;;
10479;SDS011;12789;42.610;23.040;2023-07-22T20:15:15;16.38;;;5.60;;
10479;SDS011;12789;42.610;23.040;2023-07-22T20:17:45;22.20;;;5.68;;
10479;SDS011;12789;42.610;23.040;2023-07-22T20:20:46;22.50;;;10.02;;
10479;SDS011;12789;42.610;23.040;2023-07-22T20:30:13;23.65;;;6.53;;
10479;SDS011;12789;42.610;23.040;2023-07-22T20:32:42;17.23;;;7.50;;
10479;SDS011;12789;42.610;23.040;2023-07-22T20:35:14;21.75;;;6.40;;
10479;SDS011;12789;42.610;23.040;2023-07-22T20:38:00;17.80;;;6.93;;
10479;SDS011;12789;42.610;23.040;2023-07-22T20:40:40;19.15;;;6.50;;
10479;SDS011;12789;42.610;23.040;2023-07-22T20:46:20;16.00;;;6.47;;
10479;SDS011;12789;42.610;23.040;2023-07-22T20:46:57;21.17;;;6.85;;
10479;SDS011;12789;42.610;23.040;2023-07-22T20:53:11;18.98;;;6.70;;
10479;SDS011;12789;42.610;23.040;2023-07-22T20:56:04;47.67;;;8.55;;
10479;SDS011;12789;42.610;23.040;2023-07-22T20:59:04;82.90;;;16.48;;
10479;SDS011;12789;42.610;23.040;2023-07-22T21:01:43;77.20;;;13.82;;
10479;SDS011;12789;42.610;23.040;2023-07-22T21:07:25;26.73;;;7.55;;
10479;SDS011;12789;42.610;23.040;2023-07-22T21:12:10;19.75;;;7.20;;
10479;SDS011;12789;42.610;23.040;2023-07-22T21:13:53;24.38;;;7.50;;
10479;SDS011;12789;42.610;23.040;2023-07-22T21:16:22;31.40;;;8.23;;
10479;SDS011;12789;42.610;23.040;2023-07-22T21:21:59;37.08;;;9.48;;
10479;SDS011;12789;42.610;23.040;2023-07-22T21:24:41;30.85;;;7.90;;